Terminal Aerodrome Forecast
Issued by NWS

Home | Current Version | Previous Version | Text Only | Print | Product List | Glossary On
Versions: 1 2 3 4 5 6 7 8 9 10 11 12 13 14 15 16 17 18 19 20 21
000
FTUS43 KABR 020000 AAA
TAFATY
TAF AMD
KATY 020035Z 0201/0224 33011KT P6SM SCT110 OVC200
     FM020700 VRB05KT P6SM SKC
     FM021500 29018G28KT P6SM SKC=

USA.gov is the U.S. government's official web portal to all federal, state and local government web resources and services.